createdAt,value
2023-03-21T00:02:27.656Z,4.00
2023-03-21T00:05:15.968Z,3.60
2023-03-21T00:08:02.923Z,3.00
2023-03-21T00:11:01.879Z,3.70
2023-03-21T00:13:48.469Z,3.30
2023-03-21T00:16:35.449Z,3.60
2023-03-21T00:19:25.753Z,3.50
2023-03-21T00:22:12.225Z,3.00
2023-03-21T00:24:59.097Z,3.60
2023-03-21T00:28:01.130Z,3.30
2023-03-21T00:30:57.985Z,4.30
2023-03-21T00:33:44.796Z,3.80
2023-03-21T00:36:31.868Z,4.00
2023-03-21T00:39:18.329Z,4.10
2023-03-21T00:42:05.156Z,4.00
2023-03-21T00:44:51.550Z,3.60
2023-03-21T00:47:38.386Z,3.50
2023-03-21T00:50:25.746Z,3.90
2023-03-21T00:53:14.716Z,3.20
2023-03-21T00:56:00.812Z,3.70
2023-03-21T00:58:47.203Z,4.10
2023-03-21T01:01:37.659Z,3.80
2023-03-21T01:04:27.979Z,3.90
2023-03-21T01:07:14.596Z,4.10
2023-03-21T01:10:00.907Z,4.10
2023-03-21T01:12:47.393Z,4.00
2023-03-21T01:15:35.767Z,3.70
2023-03-21T01:18:27.024Z,4.50
2023-03-21T01:21:14.325Z,4.40
2023-03-21T01:24:01.689Z,4.00
2023-03-21T01:26:49.315Z,4.70
2023-03-21T01:29:35.744Z,4.90
2023-03-21T01:32:22.095Z,5.50
2023-03-21T01:35:08.858Z,4.40
2023-03-21T01:37:55.382Z,4.30
2023-03-21T01:40:46.275Z,4.30
2023-03-21T01:43:41.598Z,4.70
2023-03-21T01:46:30.238Z,4.80
2023-03-21T01:49:50.395Z,5.70
2023-03-21T01:52:41.219Z,4.20
2023-03-21T01:55:34.131Z,4.50
2023-03-21T01:58:44.998Z,5.50
2023-03-21T02:02:06.723Z,5.10
2023-03-21T02:04:57.575Z,4.90
2023-03-21T02:07:52.097Z,5.30
2023-03-21T02:10:41.840Z,5.90
2023-03-21T02:13:30.250Z,5.10
2023-03-21T02:16:51.280Z,5.80
2023-03-21T02:20:02.109Z,6.20
2023-03-21T02:23:14.174Z,6.30
2023-03-21T02:26:42.005Z,4.90
2023-03-21T02:30:07.170Z,6.00
2023-03-21T02:33:25.555Z,5.00
2023-03-21T02:36:51.454Z,4.30
2023-03-21T02:39:56.850Z,5.40
2023-03-21T02:43:01.052Z,7.30
2023-03-21T02:46:01.419Z,8.00
2023-03-21T02:49:14.610Z,10.20
2023-03-21T02:52:14.476Z,13.80
2023-03-21T02:55:18.359Z,13.50
2023-03-21T02:58:18.760Z,9.90
2023-03-21T03:01:09.247Z,10.90
2023-03-21T03:04:03.469Z,11.00
2023-03-21T03:07:12.572Z,7.80
2023-03-21T03:10:50.141Z,9.30
2023-03-21T03:14:25.186Z,7.60
2023-03-21T03:17:22.652Z,7.20
2023-03-21T03:20:53.345Z,6.50
2023-03-21T03:23:45.700Z,7.10
2023-03-21T03:26:41.345Z,7.40
2023-03-21T03:29:31.058Z,7.50
2023-03-21T03:32:29.842Z,6.80
2023-03-21T03:35:19.910Z,5.50
2023-03-21T03:38:07.847Z,5.60
2023-03-21T03:41:02.810Z,5.30
2023-03-21T03:44:02.274Z,5.30
2023-03-21T03:47:06.015Z,5.70
2023-03-21T03:50:09.323Z,4.70
2023-03-21T03:53:18.064Z,4.60
2023-03-21T03:56:11.006Z,5.10
2023-03-21T03:58:57.742Z,4.50
2023-03-21T04:01:56.062Z,5.00
2023-03-21T04:04:43.057Z,4.40
2023-03-21T04:07:29.792Z,4.20
2023-03-21T04:10:19.838Z,4.00
2023-03-21T04:13:06.728Z,3.80
2023-03-21T04:16:03.158Z,5.40
2023-03-21T04:18:50.047Z,6.00
2023-03-21T04:21:38.725Z,7.70
2023-03-21T04:24:25.986Z,6.10
2023-03-21T04:27:15.427Z,5.50
2023-03-21T04:30:11.478Z,5.20
2023-03-21T04:33:10.913Z,5.10
2023-03-21T04:35:58.581Z,4.70
2023-03-21T04:38:47.900Z,4.40
2023-03-21T04:41:36.752Z,4.40
2023-03-21T04:44:24.022Z,4.30
2023-03-21T04:47:12.689Z,4.20
2023-03-21T04:49:59.094Z,3.60
2023-03-21T04:52:45.592Z,3.90
2023-03-21T04:55:32.541Z,3.80
2023-03-21T04:58:19.730Z,7.20
2023-03-21T05:01:07.455Z,2.70
2023-03-21T05:03:54.033Z,3.70
2023-03-21T05:06:42.081Z,4.70
2023-03-21T05:09:29.131Z,3.90
2023-03-21T05:12:17.913Z,4.50
2023-03-21T05:15:05.962Z,4.90
2023-03-21T05:17:52.377Z,4.40
2023-03-21T05:20:43.694Z,4.90
2023-03-21T05:23:31.059Z,4.30
2023-03-21T05:26:17.325Z,4.60
2023-03-21T05:29:11.524Z,4.20
2023-03-21T05:32:00.426Z,4.70
2023-03-21T05:34:46.553Z,4.10
2023-03-21T05:37:33.967Z,4.50
2023-03-21T05:40:20.795Z,3.40
2023-03-21T05:43:07.928Z,3.00
2023-03-21T05:45:54.908Z,4.20
2023-03-21T05:48:41.650Z,3.60
2023-03-21T05:51:32.978Z,3.50
2023-03-21T05:54:19.619Z,3.80
2023-03-21T05:57:08.016Z,4.00
2023-03-21T06:00:21.474Z,3.70
2023-03-21T06:03:20.432Z,3.70
2023-03-21T06:06:29.692Z,3.60
2023-03-21T06:09:20.582Z,4.40
2023-03-21T06:12:12.275Z,4.90
2023-03-21T06:15:08.347Z,4.20
2023-03-21T06:18:13.300Z,4.20
2023-03-21T06:21:03.316Z,4.10
2023-03-21T06:23:51.255Z,3.30
2023-03-21T06:26:37.952Z,3.80
2023-03-21T06:29:24.879Z,3.80
2023-03-21T06:32:12.581Z,4.30
2023-03-21T06:34:59.637Z,4.80
2023-03-21T06:37:48.772Z,4.90
2023-03-21T06:40:37.039Z,4.50
2023-03-21T06:43:24.634Z,4.50
2023-03-21T06:46:11.635Z,6.00
2023-03-21T06:48:58.633Z,4.60
2023-03-21T06:51:45.741Z,3.80
2023-03-21T06:54:37.592Z,4.70
2023-03-21T06:57:35.367Z,4.20
2023-03-21T07:00:23.745Z,4.10
2023-03-21T07:03:12.411Z,4.30
2023-03-21T07:06:03.391Z,3.90
2023-03-21T07:08:50.525Z,3.90
2023-03-21T07:11:37.667Z,3.40
2023-03-21T07:14:25.004Z,3.80
2023-03-21T07:17:11.382Z,3.50
2023-03-21T07:19:59.431Z,3.40
2023-03-21T07:22:47.010Z,4.00
2023-03-21T07:25:34.061Z,3.70
2023-03-21T07:28:22.259Z,3.80
2023-03-21T07:31:15.306Z,3.50
2023-03-21T07:34:02.066Z,4.10
2023-03-21T07:36:48.955Z,4.20
2023-03-21T07:39:35.620Z,4.20
2023-03-21T07:42:22.328Z,3.80
2023-03-21T07:45:10.835Z,3.90
2023-03-21T07:47:57.216Z,3.80
2023-03-21T07:50:43.650Z,4.10
2023-03-21T07:53:30.110Z,3.40
2023-03-21T07:56:16.931Z,3.80
2023-03-21T07:59:04.832Z,3.40
2023-03-21T08:01:51.356Z,3.80
2023-03-21T08:04:38.460Z,3.30
2023-03-21T08:07:26.894Z,2.70
2023-03-21T08:10:13.639Z,3.10
2023-03-21T08:13:00.210Z,3.40
2023-03-21T08:15:46.913Z,3.10
2023-03-21T08:18:33.768Z,2.80
2023-03-21T08:21:20.077Z,2.80
2023-03-21T08:24:07.887Z,2.60
2023-03-21T08:26:54.522Z,3.20
2023-03-21T08:29:41.859Z,3.00
2023-03-21T08:32:32.279Z,3.10
2023-03-21T08:35:19.822Z,2.90
2023-03-21T08:38:06.760Z,2.80
2023-03-21T08:40:53.435Z,3.00
2023-03-21T08:43:40.381Z,2.80
2023-03-21T08:46:27.362Z,3.10
2023-03-21T08:49:14.365Z,2.80
2023-03-21T08:52:03.117Z,3.10
2023-03-21T08:54:50.257Z,3.30
2023-03-21T08:57:39.864Z,3.20
2023-03-21T09:00:26.649Z,3.00
2023-03-21T09:03:13.265Z,2.40
2023-03-21T09:06:00.206Z,2.80
2023-03-21T09:08:46.540Z,2.90
2023-03-21T09:11:34.158Z,2.80
2023-03-21T09:14:23.880Z,2.50
2023-03-21T09:17:19.986Z,2.80
2023-03-21T09:20:18.250Z,2.20
2023-03-21T09:23:05.453Z,2.40
2023-03-21T09:25:51.988Z,2.50
2023-03-21T09:28:38.589Z,2.20
2023-03-21T09:31:25.394Z,2.40
2023-03-21T09:34:15.130Z,2.70
2023-03-21T09:37:02.852Z,2.20
2023-03-21T09:39:51.225Z,2.50
2023-03-21T09:42:57.234Z,2.50
2023-03-21T09:45:54.520Z,3.00
2023-03-21T09:48:58.279Z,3.00
2023-03-21T09:51:48.759Z,3.10
2023-03-21T09:54:40.016Z,2.90
2023-03-21T09:57:45.164Z,2.90
2023-03-21T10:00:39.499Z,2.70
2023-03-21T10:03:36.343Z,2.40
2023-03-21T10:06:33.706Z,2.10
2023-03-21T10:09:23.876Z,2.60
2023-03-21T10:12:22.267Z,2.20
2023-03-21T10:15:15.145Z,2.30
2023-03-21T10:18:06.755Z,2.70
2023-03-21T10:20:54.153Z,2.80
2023-03-21T10:23:40.646Z,2.90
2023-03-21T10:26:30.075Z,2.30
2023-03-21T10:29:18.565Z,2.20
2023-03-21T10:32:09.397Z,2.30
2023-03-21T10:34:58.038Z,2.40
2023-03-21T10:37:45.979Z,4.40
2023-03-21T10:40:34.241Z,5.50
2023-03-21T10:43:29.125Z,2.00
2023-03-21T10:46:21.064Z,2.00
2023-03-21T10:49:08.196Z,2.10
2023-03-21T10:52:02.648Z,2.20
2023-03-21T10:55:03.236Z,2.20
2023-03-21T10:57:58.214Z,1.90
2023-03-21T11:00:45.980Z,1.70
2023-03-21T11:03:42.816Z,2.20
2023-03-21T11:06:32.883Z,1.90
2023-03-21T11:09:24.448Z,2.00
2023-03-21T11:12:15.618Z,1.90
2023-03-21T11:15:39.801Z,1.90
2023-03-21T11:18:33.516Z,2.30
2023-03-21T11:21:21.642Z,2.30
2023-03-21T11:24:15.211Z,2.30
2023-03-21T11:27:07.824Z,2.30
2023-03-21T11:29:55.575Z,2.20
2023-03-21T11:32:42.246Z,1.90
2023-03-21T11:35:38.878Z,2.30
2023-03-21T11:38:31.262Z,1.90
2023-03-21T11:41:31.188Z,2.20
2023-03-21T11:44:44.068Z,1.80
2023-03-21T11:47:31.102Z,2.60
2023-03-21T11:50:41.886Z,2.50
2023-03-21T11:54:10.250Z,2.40
2023-03-21T11:57:05.212Z,2.10
2023-03-21T12:00:13.862Z,2.30
2023-03-21T12:03:48.651Z,2.20
2023-03-21T12:06:54.659Z,2.50
2023-03-21T12:09:46.167Z,2.10
2023-03-21T12:12:39.107Z,2.60
2023-03-21T12:15:50.681Z,2.40
2023-03-21T12:19:15.321Z,2.70
2023-03-21T12:22:28.976Z,2.00
2023-03-21T12:25:27.198Z,2.20
2023-03-21T12:28:38.395Z,2.70
2023-03-21T12:31:44.286Z,2.10
2023-03-21T12:35:12.783Z,2.40
2023-03-21T12:38:12.772Z,2.80
2023-03-21T12:41:23.008Z,2.90
2023-03-21T12:44:20.762Z,2.60
2023-03-21T12:47:30.930Z,2.60
2023-03-21T12:50:36.803Z,2.60
2023-03-21T12:53:52.445Z,2.30
2023-03-21T12:56:55.902Z,2.80
2023-03-21T13:00:13.820Z,3.00
2023-03-21T13:03:13.803Z,2.70
2023-03-21T13:06:06.155Z,2.90
2023-03-21T13:09:23.324Z,3.10
2023-03-21T13:13:01.621Z,3.00
2023-03-21T13:16:09.956Z,2.90
2023-03-21T13:19:14.069Z,2.70
2023-03-21T13:22:14.700Z,3.10
2023-03-21T13:25:21.390Z,2.70
2023-03-21T13:28:25.356Z,3.50
2023-03-21T13:31:25.442Z,3.30
2023-03-21T13:34:13.295Z,3.50
2023-03-21T13:37:00.909Z,3.50
2023-03-21T13:39:49.360Z,3.20
2023-03-21T13:42:44.080Z,4.80
2023-03-21T13:45:45.509Z,3.40
2023-03-21T13:48:58.603Z,3.30
2023-03-21T13:51:56.176Z,3.40
2023-03-21T13:54:53.180Z,3.50
2023-03-21T13:57:39.618Z,3.30
2023-03-21T14:00:31.115Z,3.10
2023-03-21T14:03:18.074Z,3.30
2023-03-21T14:06:07.582Z,3.00
2023-03-21T14:08:53.983Z,3.20
2023-03-21T14:11:46.445Z,3.50
2023-03-21T14:14:41.390Z,2.70
2023-03-21T14:17:34.146Z,2.80
2023-03-21T14:20:31.902Z,3.90
2023-03-21T14:23:19.628Z,2.80
2023-03-21T14:26:06.239Z,4.30
2023-03-21T14:28:52.897Z,4.90
2023-03-21T14:31:39.418Z,3.50
2023-03-21T14:34:28.955Z,3.50
2023-03-21T14:37:32.238Z,4.20
2023-03-21T14:40:25.992Z,5.20
2023-03-21T14:43:12.431Z,4.50
2023-03-21T14:46:00.599Z,4.00
2023-03-21T14:48:46.974Z,3.60
2023-03-21T14:51:33.251Z,3.80
2023-03-21T14:54:20.015Z,3.30
2023-03-21T14:57:28.999Z,3.30
2023-03-21T15:00:30.866Z,4.00
2023-03-21T15:03:21.648Z,3.50
2023-03-21T15:06:35.154Z,3.60
2023-03-21T15:09:29.489Z,3.30
2023-03-21T15:12:15.843Z,4.10
2023-03-21T15:15:03.119Z,3.20
2023-03-21T15:17:52.343Z,2.90
2023-03-21T15:20:39.430Z,4.00
2023-03-21T15:23:35.522Z,3.50
2023-03-21T15:26:25.217Z,3.50
2023-03-21T15:29:13.624Z,3.80
2023-03-21T15:32:06.255Z,3.50
2023-03-21T15:35:06.073Z,3.90
2023-03-21T15:37:57.734Z,4.30
2023-03-21T15:40:44.664Z,4.10
2023-03-21T15:43:39.655Z,4.20
2023-03-21T15:46:52.405Z,4.00
2023-03-21T15:49:41.303Z,3.90
2023-03-21T15:52:27.701Z,3.80
2023-03-21T15:55:30.232Z,3.90
2023-03-21T15:58:26.988Z,3.30
2023-03-21T16:01:19.402Z,4.60
2023-03-21T16:04:12.919Z,2.60
2023-03-21T16:07:03.829Z,2.90
2023-03-21T16:09:58.142Z,3.20
2023-03-21T16:12:44.994Z,3.40
2023-03-21T16:15:31.960Z,3.40
2023-03-21T16:18:21.172Z,3.20
2023-03-21T16:21:12.919Z,3.70
2023-03-21T16:24:00.049Z,4.40
2023-03-21T16:26:51.461Z,4.60
2023-03-21T16:29:39.378Z,4.60
2023-03-21T16:32:25.558Z,5.30
2023-03-21T16:35:12.630Z,4.70
2023-03-21T16:37:59.279Z,3.60
2023-03-21T16:40:45.736Z,3.90
2023-03-21T16:43:32.093Z,3.90
2023-03-21T16:46:26.475Z,4.60
2023-03-21T16:49:26.220Z,4.00
2023-03-21T16:52:13.837Z,3.70
2023-03-21T16:55:00.605Z,4.00
2023-03-21T16:57:49.607Z,4.20
2023-03-21T17:00:36.888Z,4.50
2023-03-21T17:03:25.419Z,4.10
2023-03-21T17:06:19.648Z,3.80
2023-03-21T17:09:06.208Z,3.40
2023-03-21T17:11:52.836Z,3.80
2023-03-21T17:14:41.393Z,3.20
2023-03-21T17:17:28.109Z,3.20
2023-03-21T17:20:23.595Z,3.40
2023-03-21T17:23:10.449Z,3.30
2023-03-21T17:25:57.154Z,3.60
2023-03-21T17:28:43.894Z,3.70
2023-03-21T17:31:36.867Z,3.70
2023-03-21T17:34:24.492Z,3.30
2023-03-21T17:37:12.066Z,3.50
2023-03-21T17:39:58.784Z,3.30
2023-03-21T17:42:49.023Z,3.50
2023-03-21T17:45:35.977Z,3.40
2023-03-21T17:48:22.546Z,3.40
2023-03-21T17:51:17.139Z,3.90
2023-03-21T17:54:05.422Z,3.70
2023-03-21T17:56:52.000Z,4.20
2023-03-21T17:59:39.714Z,4.10
2023-03-21T18:02:26.166Z,3.60
2023-03-21T18:05:12.639Z,4.40
2023-03-21T18:08:10.324Z,4.30
2023-03-21T18:10:58.266Z,4.10
2023-03-21T18:13:45.270Z,4.60
2023-03-21T18:16:31.551Z,4.40
2023-03-21T18:19:18.548Z,4.60
2023-03-21T18:22:05.658Z,4.40
2023-03-21T18:24:52.918Z,4.50
2023-03-21T18:28:02.095Z,4.50
2023-03-21T18:31:05.413Z,4.40
2023-03-21T18:33:54.401Z,5.00
2023-03-21T18:36:42.873Z,4.70
2023-03-21T18:39:31.742Z,4.60
2023-03-21T18:42:21.844Z,4.70
2023-03-21T18:45:10.979Z,5.10
2023-03-21T18:47:59.807Z,5.00
2023-03-21T18:50:46.863Z,5.00
2023-03-21T18:53:33.436Z,5.00
2023-03-21T18:57:06.362Z,4.90
2023-03-21T18:59:27.296Z,4.70
2023-03-21T19:02:15.496Z,5.00
2023-03-21T19:05:04.053Z,5.10
2023-03-21T19:07:51.917Z,5.50
2023-03-21T19:10:38.471Z,5.40
2023-03-21T19:13:26.631Z,5.10
2023-03-21T19:16:14.064Z,5.30
2023-03-21T19:19:00.936Z,5.90
2023-03-21T19:21:50.723Z,5.60
2023-03-21T19:24:39.834Z,5.40
2023-03-21T19:27:27.174Z,5.40
2023-03-21T19:30:15.618Z,5.30
2023-03-21T19:33:02.370Z,5.30
2023-03-21T19:35:50.287Z,5.20
2023-03-21T19:38:37.173Z,5.50
2023-03-21T19:41:23.934Z,5.90
2023-03-21T19:44:10.539Z,5.50
2023-03-21T19:46:57.373Z,5.70
2023-03-21T19:50:30.757Z,5.40
2023-03-21T19:52:51.582Z,4.90
2023-03-21T19:55:38.526Z,5.80
2023-03-21T19:58:25.135Z,5.70
2023-03-21T20:01:11.710Z,6.20
2023-03-21T20:03:58.816Z,6.20
2023-03-21T20:06:46.418Z,5.20
2023-03-21T20:09:52.581Z,6.20
2023-03-21T20:12:39.376Z,5.90
2023-03-21T20:15:29.710Z,6.30
2023-03-21T20:18:18.022Z,6.60
2023-03-21T20:21:04.809Z,6.40
2023-03-21T20:23:54.357Z,5.60
2023-03-21T20:26:40.832Z,7.00
2023-03-21T20:30:07.414Z,5.90
2023-03-21T20:32:39.430Z,5.30
2023-03-21T20:36:05.547Z,7.10
2023-03-21T20:38:35.231Z,7.20
2023-03-21T20:41:21.938Z,8.10
2023-03-21T20:47:16.904Z,8.80
2023-03-21T20:50:05.497Z,7.20
2023-03-21T20:53:05.899Z,8.10
2023-03-21T20:55:55.080Z,8.20
2023-03-21T20:59:12.583Z,7.80
2023-03-21T21:01:48.472Z,9.20
2023-03-21T21:04:49.902Z,8.50
2023-03-21T21:07:43.385Z,9.10
2023-03-21T21:10:31.622Z,7.90
2023-03-21T21:13:18.447Z,8.50
2023-03-21T21:16:07.516Z,8.00
2023-03-21T21:18:54.784Z,9.20
2023-03-21T21:21:41.156Z,7.80
2023-03-21T21:24:27.923Z,7.70
2023-03-21T21:27:15.795Z,8.00
2023-03-21T21:30:02.957Z,8.70
2023-03-21T21:32:49.544Z,8.90
2023-03-21T21:35:36.360Z,8.90
2023-03-21T21:38:23.123Z,8.90
2023-03-21T21:41:20.912Z,9.00
2023-03-21T21:44:09.372Z,9.00
2023-03-21T21:46:56.842Z,9.60
2023-03-21T21:49:43.271Z,9.90
2023-03-21T21:52:30.088Z,10.80
2023-03-21T21:55:17.385Z,9.70
2023-03-21T21:58:04.183Z,10.20
2023-03-21T22:00:50.321Z,10.70
2023-03-21T22:03:40.433Z,8.60
2023-03-21T22:06:27.222Z,10.60
2023-03-21T22:09:14.831Z,9.20
2023-03-21T22:12:01.524Z,10.00
2023-03-21T22:14:48.477Z,11.00
2023-03-21T22:17:35.652Z,10.50
2023-03-21T22:20:21.934Z,10.10
2023-03-21T22:23:08.500Z,10.60
2023-03-21T22:25:56.985Z,9.40
2023-03-21T22:28:43.819Z,8.50
2023-03-21T22:31:32.564Z,9.70
2023-03-21T22:34:22.069Z,10.50
2023-03-21T22:37:08.521Z,10.40
2023-03-21T22:39:55.154Z,11.10
2023-03-21T22:42:42.711Z,10.40
2023-03-21T22:45:29.391Z,9.90
2023-03-21T22:48:16.680Z,9.80
2023-03-21T22:51:04.059Z,9.30
2023-03-21T22:53:50.840Z,8.10
2023-03-21T22:56:37.143Z,9.70
2023-03-21T22:59:25.876Z,10.20
2023-03-21T23:02:13.632Z,9.80
2023-03-21T23:04:59.868Z,9.00
2023-03-21T23:07:46.245Z,15.90
2023-03-21T23:10:32.931Z,9.20
2023-03-21T23:13:19.109Z,9.60
2023-03-21T23:16:07.129Z,9.40
2023-03-21T23:18:54.445Z,10.40
2023-03-21T23:21:43.729Z,9.40
2023-03-21T23:24:29.945Z,9.30
2023-03-21T23:27:17.533Z,10.00
2023-03-21T23:30:07.644Z,10.20
2023-03-21T23:32:55.169Z,10.70
2023-03-21T23:35:41.566Z,10.10
2023-03-21T23:38:27.854Z,9.20
2023-03-21T23:41:19.006Z,9.50
2023-03-21T23:44:05.773Z,10.80
2023-03-21T23:46:52.026Z,10.80
2023-03-21T23:49:38.556Z,9.80
2023-03-21T23:52:25.509Z,9.60
2023-03-21T23:55:12.742Z,9.70
2023-03-21T23:57:59.044Z,9.60
